createdAt,value
2023-05-14T00:02:03.905Z,4.05
2023-05-14T00:05:06.400Z,5.03
2023-05-14T00:08:08.688Z,5.05
2023-05-14T00:11:10.806Z,4.35
2023-05-14T00:14:12.859Z,4.55
2023-05-14T00:17:14.905Z,5.28
2023-05-14T00:20:17.096Z,4.88
2023-05-14T00:23:19.431Z,3.58
2023-05-14T00:26:21.622Z,4.68
2023-05-14T00:29:23.790Z,4.05
2023-05-14T00:32:26.033Z,3.85
2023-05-14T00:35:28.143Z,4.75
2023-05-14T00:38:30.460Z,4.22
2023-05-14T00:41:32.702Z,4.30
2023-05-14T00:44:36.659Z,4.78
2023-05-14T00:47:40.281Z,5.07
2023-05-14T00:50:43.147Z,4.20
2023-05-14T00:53:46.927Z,4.97
2023-05-14T00:56:51.307Z,4.55
2023-05-14T00:59:54.037Z,5.75
2023-05-14T01:02:56.407Z,4.50
2023-05-14T01:06:10.649Z,4.97
2023-05-14T01:09:18.184Z,4.85
2023-05-14T01:12:34.066Z,4.88
2023-05-14T01:15:38.322Z,3.58
2023-05-14T01:18:42.621Z,4.82
2023-05-14T01:24:46.920Z,3.67
2023-05-14T01:28:12.639Z,5.07
2023-05-14T01:31:28.102Z,4.07
2023-05-14T01:34:31.502Z,5.13
2023-05-14T01:37:33.715Z,4.10
2023-05-14T01:40:37.159Z,5.32
2023-05-14T01:43:41.558Z,4.30
2023-05-14T01:46:43.617Z,5.72
2023-05-14T01:49:45.960Z,4.68
2023-05-14T01:52:53.571Z,3.88
2023-05-14T01:55:55.684Z,4.18
2023-05-14T01:58:58.100Z,4.25
2023-05-14T02:02:00.331Z,3.92
2023-05-14T02:05:03.898Z,4.32
2023-05-14T02:08:07.738Z,3.70
2023-05-14T02:11:09.855Z,4.63
2023-05-14T02:14:12.091Z,3.78
2023-05-14T02:17:17.677Z,4.25
2023-05-14T02:20:20.154Z,4.22
2023-05-14T02:23:31.066Z,3.30
2023-05-14T02:26:40.256Z,3.58
2023-05-14T02:29:42.512Z,3.15
2023-05-14T02:32:44.663Z,3.75
2023-05-14T02:35:46.859Z,4.18
2023-05-14T02:38:49.122Z,4.93
2023-05-14T02:41:51.245Z,4.88
2023-05-14T02:44:53.418Z,3.80
2023-05-14T02:47:55.609Z,2.78
2023-05-14T02:50:57.682Z,4.57
2023-05-14T02:53:59.940Z,4.72
2023-05-14T02:57:02.113Z,7.00
2023-05-14T03:00:04.756Z,4.85
2023-05-14T03:03:07.603Z,4.80
2023-05-14T03:06:10.788Z,3.95
2023-05-14T03:09:12.905Z,3.80
2023-05-14T03:12:15.083Z,4.65
2023-05-14T03:15:17.353Z,5.60
2023-05-14T03:18:19.887Z,5.43
2023-05-14T03:21:22.066Z,3.67
2023-05-14T03:24:24.148Z,3.85
2023-05-14T03:27:26.264Z,4.97
2023-05-14T03:30:28.458Z,4.10
2023-05-14T03:33:31.299Z,3.85
2023-05-14T03:36:36.530Z,5.03
2023-05-14T03:39:38.609Z,4.50
2023-05-14T03:42:41.517Z,4.65
2023-05-14T03:45:44.291Z,4.57
2023-05-14T03:48:46.830Z,6.63
2023-05-14T03:51:49.106Z,5.63
2023-05-14T03:54:51.308Z,4.55
2023-05-14T03:57:53.456Z,5.50
2023-05-14T04:00:55.755Z,6.82
2023-05-14T04:03:58.320Z,5.22
2023-05-14T04:07:00.735Z,5.38
2023-05-14T04:10:04.696Z,4.78
2023-05-14T04:13:07.161Z,6.30
2023-05-14T04:16:09.328Z,5.75
2023-05-14T04:19:11.723Z,5.88
2023-05-14T04:22:13.926Z,6.50
2023-05-14T04:25:16.224Z,6.22
2023-05-14T04:28:18.371Z,6.63
2023-05-14T04:31:20.564Z,5.32
2023-05-14T04:34:23.048Z,6.25
2023-05-14T04:37:26.229Z,4.28
2023-05-14T04:40:31.226Z,5.60
2023-05-14T04:43:33.477Z,5.25
2023-05-14T04:46:35.645Z,6.18
2023-05-14T04:49:37.840Z,5.78
2023-05-14T04:52:39.998Z,4.80
2023-05-14T04:55:42.353Z,5.85
2023-05-14T04:58:44.580Z,6.32
2023-05-14T05:01:46.830Z,5.80
2023-05-14T05:04:48.884Z,5.18
2023-05-14T05:07:51.000Z,4.78
2023-05-14T05:10:53.252Z,6.85
2023-05-14T05:13:55.404Z,5.68
2023-05-14T05:16:57.596Z,6.38
2023-05-14T05:19:59.882Z,4.88
2023-05-14T05:23:01.916Z,4.47
2023-05-14T05:26:04.122Z,6.00
2023-05-14T05:29:06.471Z,4.82
2023-05-14T05:32:08.872Z,5.72
2023-05-14T05:35:10.989Z,5.10
2023-05-14T05:38:13.143Z,5.78
2023-05-14T05:41:21.174Z,4.93
2023-05-14T05:44:23.282Z,5.28
2023-05-14T05:47:25.376Z,5.07
2023-05-14T05:50:27.727Z,5.20
2023-05-14T05:53:29.784Z,4.95
2023-05-14T05:56:32.069Z,4.07
2023-05-14T05:59:34.111Z,5.68
2023-05-14T06:02:36.571Z,3.78
2023-05-14T06:05:38.943Z,4.07
2023-05-14T06:08:42.296Z,5.78
2023-05-14T06:11:44.412Z,3.50
2023-05-14T06:14:46.601Z,5.32
2023-05-14T06:17:48.868Z,3.95
2023-05-14T06:20:50.961Z,3.58
2023-05-14T06:23:53.215Z,4.53
2023-05-14T06:26:55.519Z,3.50
2023-05-14T06:29:57.854Z,3.30
2023-05-14T06:33:00.104Z,3.80
2023-05-14T06:36:05.878Z,3.28
2023-05-14T06:39:07.935Z,4.40
2023-05-14T06:42:10.164Z,3.83
2023-05-14T06:45:12.439Z,3.50
2023-05-14T06:48:14.664Z,4.10
2023-05-14T06:51:16.799Z,5.18
2023-05-14T06:54:20.588Z,4.13
2023-05-14T06:57:22.835Z,3.13
2023-05-14T07:00:25.235Z,3.38
2023-05-14T07:03:29.184Z,3.80
2023-05-14T07:06:33.844Z,4.78
2023-05-14T07:09:36.379Z,3.80
2023-05-14T07:12:38.647Z,2.90
2023-05-14T07:15:40.731Z,3.67
2023-05-14T07:18:43.986Z,4.05
2023-05-14T07:21:46.241Z,4.00
2023-05-14T07:24:49.321Z,4.35
2023-05-14T07:27:51.373Z,4.55
2023-05-14T07:30:54.317Z,3.50
2023-05-14T07:33:56.633Z,4.72
2023-05-14T07:36:59.447Z,3.47
2023-05-14T07:40:01.552Z,3.88
2023-05-14T07:43:03.732Z,3.58
2023-05-14T07:46:06.027Z,4.45
2023-05-14T07:49:08.168Z,3.65
2023-05-14T07:52:10.326Z,3.65
2023-05-14T07:55:13.143Z,4.13
2023-05-14T07:58:16.359Z,3.47
2023-05-14T08:01:18.446Z,3.17
2023-05-14T08:04:20.518Z,3.90
2023-05-14T08:07:22.722Z,3.28
2023-05-14T08:10:25.680Z,3.43
2023-05-14T08:13:28.248Z,3.42
2023-05-14T08:16:30.622Z,5.57
2023-05-14T08:19:33.266Z,4.47
2023-05-14T08:22:35.426Z,3.97
2023-05-14T08:25:37.505Z,3.90
2023-05-14T08:28:39.682Z,3.88
2023-05-14T08:31:42.281Z,4.10
2023-05-14T08:34:44.368Z,3.55
2023-05-14T08:37:46.594Z,2.97
2023-05-14T08:41:01.148Z,3.97
2023-05-14T08:44:13.170Z,3.00
2023-05-14T08:47:17.761Z,3.72
2023-05-14T08:50:23.774Z,3.47
2023-05-14T08:53:26.380Z,3.00
2023-05-14T08:56:32.541Z,3.28
2023-05-14T08:59:35.000Z,4.15
2023-05-14T09:02:37.418Z,3.92
2023-05-14T09:05:40.513Z,4.03
2023-05-14T09:08:43.102Z,4.05
2023-05-14T09:11:52.594Z,3.90
2023-05-14T09:14:55.294Z,2.97
2023-05-14T09:17:57.956Z,4.70
2023-05-14T09:21:00.232Z,3.10
2023-05-14T09:24:02.467Z,4.75
2023-05-14T09:27:04.830Z,4.32
2023-05-14T09:30:12.043Z,3.08
2023-05-14T09:33:27.385Z,3.90
2023-05-14T09:36:29.684Z,3.10
2023-05-14T09:39:33.835Z,4.32
2023-05-14T09:42:36.147Z,3.15
2023-05-14T09:45:38.541Z,3.50
2023-05-14T09:48:40.895Z,2.70
2023-05-14T09:51:43.253Z,3.15
2023-05-14T09:54:46.920Z,3.25
2023-05-14T09:57:49.033Z,3.35
2023-05-14T10:00:52.166Z,3.05
2023-05-14T10:03:55.503Z,3.00
2023-05-14T10:10:03.923Z,4.20
2023-05-14T10:13:13.392Z,3.92
2023-05-14T10:16:32.166Z,3.03
2023-05-14T10:19:35.456Z,3.17
2023-05-14T10:22:37.539Z,3.08
2023-05-14T10:25:41.215Z,3.05
2023-05-14T10:28:44.067Z,3.10
2023-05-14T10:31:53.912Z,3.72
2023-05-14T10:34:56.262Z,2.45
2023-05-14T10:37:59.603Z,2.97
2023-05-14T10:41:07.558Z,3.33
2023-05-14T10:44:10.471Z,3.08
2023-05-14T10:47:12.914Z,2.83
2023-05-14T10:50:16.158Z,3.00
2023-05-14T10:53:18.746Z,3.70
2023-05-14T10:56:21.613Z,1.90
2023-05-14T10:59:28.354Z,2.27
2023-05-14T11:02:37.415Z,3.67
2023-05-14T11:05:41.423Z,3.25
2023-05-14T11:08:44.733Z,3.22
2023-05-14T11:11:47.762Z,2.55
2023-05-14T11:14:51.184Z,2.53
2023-05-14T11:17:54.175Z,2.55
2023-05-14T11:21:03.051Z,3.13
2023-05-14T11:24:06.092Z,2.47
2023-05-14T11:27:09.361Z,2.38
2023-05-14T11:30:21.866Z,2.75
2023-05-14T11:33:24.241Z,2.47
2023-05-14T11:36:26.399Z,3.22
2023-05-14T11:39:28.633Z,3.40
2023-05-14T11:42:30.734Z,3.95
2023-05-14T11:45:33.394Z,5.05
2023-05-14T11:48:35.551Z,5.43
2023-05-14T11:51:37.939Z,4.72
2023-05-14T11:54:41.126Z,4.22
2023-05-14T11:57:43.620Z,4.88
2023-05-14T12:00:47.512Z,4.65
2023-05-14T12:03:50.848Z,4.32
2023-05-14T12:06:53.785Z,4.47
2023-05-14T12:10:00.566Z,4.38
2023-05-14T12:13:07.360Z,3.88
2023-05-14T12:16:09.582Z,4.88
2023-05-14T12:19:14.211Z,3.85
2023-05-14T12:22:18.789Z,4.68
2023-05-14T12:25:21.183Z,4.30
2023-05-14T12:28:25.577Z,4.38
2023-05-14T12:31:34.697Z,3.47
2023-05-14T12:34:38.028Z,4.30
2023-05-14T12:37:40.342Z,4.18
2023-05-14T12:40:42.387Z,2.97
2023-05-14T12:43:45.004Z,4.47
2023-05-14T12:46:47.263Z,3.63
2023-05-14T12:49:49.319Z,2.90
2023-05-14T12:52:51.515Z,2.55
2023-05-14T12:55:54.647Z,2.85
2023-05-14T12:58:57.710Z,3.45
2023-05-14T13:02:12.181Z,3.65
2023-05-14T13:05:14.601Z,2.45
2023-05-14T13:08:17.990Z,2.83
2023-05-14T13:11:21.314Z,3.92
2023-05-14T13:14:23.555Z,3.35
2023-05-14T13:17:25.672Z,3.63
2023-05-14T13:20:34.072Z,2.70
2023-05-14T13:23:36.300Z,2.55
2023-05-14T13:26:38.461Z,3.35
2023-05-14T13:29:40.624Z,2.95
2023-05-14T13:32:43.661Z,2.95
2023-05-14T13:35:45.813Z,2.72
2023-05-14T13:38:47.865Z,3.30
2023-05-14T13:41:51.109Z,2.88
2023-05-14T13:44:53.207Z,2.40
2023-05-14T13:47:56.814Z,2.47
2023-05-14T13:54:01.488Z,2.45
2023-05-14T13:57:03.669Z,2.38
2023-05-14T14:00:06.761Z,2.70
2023-05-14T14:03:09.382Z,2.25
2023-05-14T14:06:12.417Z,2.17
2023-05-14T14:09:14.770Z,1.88
2023-05-14T14:12:16.855Z,2.22
2023-05-14T14:15:18.942Z,1.50
2023-05-14T14:18:21.197Z,1.77
2023-05-14T14:21:23.385Z,2.22
2023-05-14T14:24:25.725Z,2.22
2023-05-14T14:27:28.361Z,1.30
2023-05-14T14:30:30.494Z,1.83
2023-05-14T14:33:32.656Z,2.38
2023-05-14T14:36:34.856Z,2.28
2023-05-14T14:39:36.935Z,2.28
2023-05-14T14:42:39.240Z,1.88
2023-05-14T14:45:42.951Z,1.55
2023-05-14T14:48:45.414Z,1.95
2023-05-14T14:51:47.558Z,1.15
2023-05-14T14:54:49.838Z,1.67
2023-05-14T14:57:52.167Z,1.95
2023-05-14T15:00:56.185Z,1.98
2023-05-14T15:03:58.313Z,2.17
2023-05-14T15:07:00.961Z,1.95
2023-05-14T15:10:03.059Z,1.88
2023-05-14T15:13:06.754Z,1.50
2023-05-14T15:16:09.037Z,2.25
2023-05-14T15:19:15.403Z,2.10
2023-05-14T15:22:17.927Z,1.60
2023-05-14T15:25:20.950Z,2.13
2023-05-14T15:28:23.072Z,1.70
2023-05-14T15:31:25.701Z,1.80
2023-05-14T15:34:28.063Z,2.20
2023-05-14T15:37:40.334Z,2.00
2023-05-14T15:40:42.370Z,2.78
2023-05-14T15:43:44.758Z,2.63
2023-05-14T15:46:46.990Z,1.80
2023-05-14T15:49:49.720Z,1.75
2023-05-14T15:52:51.895Z,2.95
2023-05-14T15:55:54.115Z,2.65
2023-05-14T15:58:56.166Z,2.40
2023-05-14T16:01:58.545Z,1.85
2023-05-14T16:05:00.631Z,1.73
2023-05-14T16:08:02.760Z,3.38
2023-05-14T16:11:05.579Z,2.38
2023-05-14T16:14:07.664Z,1.90
2023-05-14T16:17:09.794Z,2.63
2023-05-14T16:20:12.710Z,2.38
2023-05-14T16:23:14.743Z,2.42
2023-05-14T16:26:17.378Z,1.67
2023-05-14T16:29:19.506Z,2.53
2023-05-14T16:32:22.873Z,1.70
2023-05-14T16:35:24.991Z,4.20
2023-05-14T16:38:27.035Z,2.63
2023-05-14T16:41:29.106Z,2.92
2023-05-14T16:44:31.795Z,2.38
2023-05-14T16:47:34.314Z,3.20
2023-05-14T16:50:36.626Z,2.60
2023-05-14T16:53:39.296Z,3.97
2023-05-14T16:56:42.096Z,3.90
2023-05-14T16:59:44.163Z,3.15
2023-05-14T17:02:49.304Z,2.65
2023-05-14T17:05:52.357Z,2.58
2023-05-14T17:08:54.402Z,2.33
2023-05-14T17:11:56.686Z,3.58
2023-05-14T17:15:05.481Z,3.97
2023-05-14T17:18:08.015Z,3.28
2023-05-14T17:21:10.940Z,4.13
2023-05-14T17:24:13.243Z,3.08
2023-05-14T17:27:16.671Z,2.35
2023-05-14T17:30:19.276Z,2.83
2023-05-14T17:33:21.696Z,3.03
2023-05-14T17:36:23.960Z,3.15
2023-05-14T17:39:26.631Z,2.38
2023-05-14T17:42:28.722Z,2.42
2023-05-14T17:45:42.627Z,2.45
2023-05-14T17:48:48.782Z,3.17
2023-05-14T17:51:50.797Z,2.78
2023-05-14T17:54:53.104Z,3.67
2023-05-14T17:57:55.430Z,2.30
2023-05-14T18:00:57.998Z,2.38
2023-05-14T18:04:01.421Z,2.70
2023-05-14T18:07:03.778Z,3.93
2023-05-14T18:10:06.632Z,2.58
2023-05-14T18:13:09.024Z,3.42
2023-05-14T18:16:11.299Z,3.03
2023-05-14T18:19:14.952Z,4.57
2023-05-14T18:22:17.126Z,3.35
2023-05-14T18:25:21.835Z,3.40
2023-05-14T18:28:24.000Z,3.00
2023-05-14T18:31:27.950Z,3.40
2023-05-14T18:34:30.323Z,3.63
2023-05-14T18:37:33.398Z,3.22
2023-05-14T18:40:36.352Z,3.42
2023-05-14T18:43:38.392Z,3.83
2023-05-14T18:46:40.704Z,4.22
2023-05-14T18:49:43.690Z,3.58
2023-05-14T18:52:45.793Z,4.18
2023-05-14T18:55:48.048Z,4.10
2023-05-14T18:58:50.192Z,4.13
2023-05-14T19:01:53.396Z,4.57
2023-05-14T19:04:55.787Z,4.28
2023-05-14T19:07:58.193Z,4.78
2023-05-14T19:11:00.465Z,3.60
2023-05-14T19:14:02.942Z,4.40
2023-05-14T19:17:05.650Z,2.97
2023-05-14T19:20:09.519Z,4.60
2023-05-14T19:23:11.973Z,3.90
2023-05-14T19:26:14.024Z,3.17
2023-05-14T19:29:16.159Z,4.75
2023-05-14T19:32:18.436Z,4.28
2023-05-14T19:35:20.948Z,5.60
2023-05-14T19:38:23.852Z,4.18
2023-05-14T19:41:26.593Z,3.85
2023-05-14T19:44:30.900Z,4.15
2023-05-14T19:47:33.410Z,4.43
2023-05-14T19:50:38.073Z,4.57
2023-05-14T19:53:40.726Z,4.45
2023-05-14T19:56:42.798Z,5.20
2023-05-14T19:59:45.380Z,4.90
2023-05-14T20:02:48.034Z,4.72
2023-05-14T20:05:50.277Z,3.92
2023-05-14T20:08:55.361Z,5.78
2023-05-14T20:11:57.686Z,3.88
2023-05-14T20:15:00.238Z,5.15
2023-05-14T20:18:03.418Z,4.55
2023-05-14T20:21:05.738Z,5.78
2023-05-14T20:24:07.909Z,5.55
2023-05-14T20:27:10.154Z,7.22
2023-05-14T20:30:12.716Z,5.22
2023-05-14T20:33:22.572Z,5.85
2023-05-14T20:36:25.641Z,5.18
2023-05-14T20:39:28.420Z,7.13
2023-05-14T20:42:30.612Z,4.95
2023-05-14T20:45:33.040Z,4.72
2023-05-14T20:48:35.520Z,6.07
2023-05-14T20:51:38.054Z,5.63
2023-05-14T20:54:40.487Z,4.82
2023-05-14T20:57:43.698Z,5.53
2023-05-14T21:00:46.063Z,4.38
2023-05-14T21:03:48.363Z,5.40
2023-05-14T21:06:51.505Z,4.82
2023-05-14T21:09:53.673Z,6.32
2023-05-14T21:12:55.803Z,5.63
2023-05-14T21:16:00.376Z,5.75
2023-05-14T21:22:08.835Z,6.00
2023-05-14T21:25:11.213Z,6.85
2023-05-14T21:28:13.369Z,6.00
2023-05-14T21:31:15.516Z,5.32
2023-05-14T21:34:17.805Z,7.68
2023-05-14T21:37:21.520Z,7.20
2023-05-14T21:40:23.646Z,7.55
2023-05-14T21:43:26.185Z,5.15
2023-05-14T21:46:29.430Z,6.20
2023-05-14T21:49:31.836Z,6.72
2023-05-14T21:52:34.216Z,7.50
2023-05-14T21:55:36.465Z,12.88
2023-05-14T21:58:38.737Z,8.30
2023-05-14T22:01:56.148Z,6.78
2023-05-14T22:05:03.264Z,6.10
2023-05-14T22:08:06.128Z,6.13
2023-05-14T22:11:08.612Z,6.80
2023-05-14T22:14:10.785Z,7.40
2023-05-14T22:17:13.613Z,6.38
2023-05-14T22:20:16.071Z,7.15
2023-05-14T22:23:18.330Z,6.18
2023-05-14T22:26:21.852Z,7.43
2023-05-14T22:29:24.250Z,6.28
2023-05-14T22:32:26.645Z,6.20
2023-05-14T22:35:29.867Z,6.75
2023-05-14T22:38:31.916Z,6.78
2023-05-14T22:41:34.190Z,9.20
2023-05-14T22:44:37.163Z,7.38
2023-05-14T22:47:39.535Z,7.00
2023-05-14T22:50:41.904Z,7.78
2023-05-14T22:53:44.054Z,7.38
2023-05-14T22:56:46.409Z,7.25
2023-05-14T22:59:49.659Z,7.87
2023-05-14T23:02:55.952Z,6.85
2023-05-14T23:05:58.124Z,5.97
2023-05-14T23:09:05.569Z,6.15
2023-05-14T23:12:08.031Z,6.63
2023-05-14T23:15:10.462Z,6.43
2023-05-14T23:18:12.843Z,6.88
2023-05-14T23:21:15.270Z,6.03
2023-05-14T23:24:17.478Z,5.45
2023-05-14T23:27:19.868Z,6.50
2023-05-14T23:30:21.945Z,6.20
2023-05-14T23:33:25.176Z,6.38
2023-05-14T23:36:27.580Z,6.72
2023-05-14T23:39:30.442Z,5.63
2023-05-14T23:42:32.683Z,6.97
2023-05-14T23:45:34.902Z,6.82
2023-05-14T23:48:37.284Z,5.78
2023-05-14T23:51:39.441Z,6.97
2023-05-14T23:54:41.635Z,5.07
2023-05-14T23:57:43.886Z,5.63
